createdAt,value
2022-12-18T00:00:13.407Z,95.85
2022-12-18T00:01:13.369Z,95.85
2022-12-18T00:02:13.377Z,95.74
2022-12-18T00:03:13.578Z,95.53
2022-12-18T00:04:13.408Z,95.42
2022-12-18T00:05:13.350Z,95.31
2022-12-18T00:06:13.408Z,95.21
2022-12-18T00:07:13.530Z,95.10
2022-12-18T00:08:13.305Z,94.93
2022-12-18T00:09:13.257Z,94.82
2022-12-18T00:10:15.430Z,94.60
2022-12-18T00:11:13.276Z,94.39
2022-12-18T00:13:13.271Z,94.22
2022-12-18T00:14:13.219Z,94.43
2022-12-18T00:15:13.249Z,94.93
2022-12-18T00:16:13.281Z,95.14
2022-12-18T00:17:13.171Z,95.14
2022-12-18T00:18:18.942Z,95.25
2022-12-18T00:19:14.299Z,95.25
2022-12-18T00:20:13.297Z,95.25
2022-12-18T00:21:13.142Z,95.25
2022-12-18T00:22:13.114Z,95.14
2022-12-18T00:23:13.096Z,94.93
2022-12-18T00:24:13.157Z,94.71
2022-12-18T00:25:13.986Z,94.71
2022-12-18T00:26:13.110Z,94.71
2022-12-18T00:27:13.110Z,94.71
2022-12-18T00:28:13.046Z,94.76
2022-12-18T00:29:13.058Z,94.76
2022-12-18T00:30:14.006Z,94.76
2022-12-18T00:31:13.079Z,94.65
2022-12-18T00:32:13.002Z,94.65
2022-12-18T00:33:13.011Z,94.43
2022-12-18T00:34:12.989Z,94.33
2022-12-18T00:35:12.968Z,94.26
2022-12-18T00:36:13.102Z,94.15
2022-12-18T00:37:18.305Z,94.15
2022-12-18T00:38:13.960Z,94.15
2022-12-18T00:39:13.071Z,94.15
2022-12-18T00:40:12.938Z,94.05
2022-12-18T00:41:12.935Z,94.37
2022-12-18T00:42:12.910Z,94.80
2022-12-18T00:43:12.971Z,95.01
2022-12-18T00:44:12.960Z,95.12
2022-12-18T00:45:13.383Z,95.23
2022-12-18T00:46:12.940Z,95.18
2022-12-18T00:47:12.838Z,95.29
2022-12-18T00:48:12.848Z,95.29
2022-12-18T00:49:12.838Z,95.40
2022-12-18T00:50:12.827Z,95.40
2022-12-18T00:51:12.786Z,95.18
2022-12-18T00:52:12.819Z,95.07
2022-12-18T00:53:12.766Z,95.01
2022-12-18T00:54:12.742Z,95.01
2022-12-18T00:55:12.773Z,94.90
2022-12-18T00:56:12.998Z,94.90
2022-12-18T00:57:12.752Z,94.80
2022-12-18T00:58:12.720Z,94.80
2022-12-18T00:59:12.732Z,94.59
2022-12-18T01:00:12.846Z,94.26
2022-12-18T01:01:12.755Z,94.59
2022-12-18T01:02:12.838Z,95.12
2022-12-18T01:03:12.697Z,95.34
2022-12-18T01:04:12.656Z,95.44
2022-12-18T01:05:12.630Z,95.34
2022-12-18T01:06:12.699Z,95.23
2022-12-18T01:07:12.605Z,95.12
2022-12-18T01:08:12.597Z,95.12
2022-12-18T01:09:12.586Z,95.01
2022-12-18T01:10:12.580Z,94.80
2022-12-18T01:11:12.574Z,94.80
2022-12-18T01:12:12.602Z,94.80
2022-12-18T01:13:12.600Z,94.80
2022-12-18T01:14:12.608Z,94.90
2022-12-18T01:15:12.548Z,95.23
2022-12-18T01:16:12.635Z,95.44
2022-12-18T01:17:12.493Z,95.40
2022-12-18T01:18:12.468Z,95.44
2022-12-18T01:19:12.645Z,95.34
2022-12-18T01:20:13.299Z,95.34
2022-12-18T01:21:12.464Z,95.12
2022-12-18T01:22:12.441Z,95.01
2022-12-18T01:23:12.448Z,94.90
2022-12-18T01:24:12.433Z,94.69
2022-12-18T01:25:12.444Z,94.69
2022-12-18T01:26:12.427Z,94.59
2022-12-18T01:27:12.354Z,94.48
2022-12-18T01:28:12.408Z,94.26
2022-12-18T01:29:13.458Z,94.09
2022-12-18T01:30:13.422Z,93.98
2022-12-18T01:31:12.436Z,93.77
2022-12-18T01:32:12.384Z,93.55
2022-12-18T01:33:12.305Z,93.38
2022-12-18T01:34:13.488Z,93.38
2022-12-18T01:35:13.014Z,93.27
2022-12-18T01:36:12.270Z,93.38
2022-12-18T01:37:12.242Z,93.49
2022-12-18T01:38:12.304Z,93.59
2022-12-18T01:39:12.274Z,93.91
2022-12-18T01:40:12.305Z,94.24
2022-12-18T01:41:12.693Z,94.52
2022-12-18T01:42:12.341Z,95.16
2022-12-18T01:43:12.209Z,95.37
2022-12-18T01:44:12.190Z,95.48
2022-12-18T01:45:12.215Z,95.37
2022-12-18T01:46:12.244Z,95.27
2022-12-18T01:47:12.214Z,95.16
2022-12-18T01:48:12.124Z,94.84
2022-12-18T01:49:12.142Z,94.73
2022-12-18T01:50:12.231Z,94.52
2022-12-18T01:51:12.118Z,94.31
2022-12-18T01:52:12.315Z,94.31
2022-12-18T01:53:12.098Z,94.41
2022-12-18T01:54:12.094Z,94.41
2022-12-18T01:55:12.029Z,94.41
2022-12-18T01:56:12.105Z,94.31
2022-12-18T01:57:12.038Z,94.24
2022-12-18T01:58:12.041Z,94.02
2022-12-18T01:59:12.196Z,93.81
2022-12-18T02:00:11.996Z,93.70
2022-12-18T02:01:12.254Z,93.49
2022-12-18T02:02:12.108Z,93.42
2022-12-18T02:03:12.028Z,93.31
2022-12-18T02:04:11.938Z,93.31
2022-12-18T02:05:13.073Z,93.31
2022-12-18T02:06:11.958Z,93.42
2022-12-18T02:07:12.049Z,93.42
2022-12-18T02:08:11.886Z,93.53
2022-12-18T02:09:11.866Z,93.53
2022-12-18T02:10:11.907Z,93.74
2022-12-18T02:11:11.893Z,93.85
2022-12-18T02:12:12.913Z,94.49
2022-12-18T02:13:11.846Z,94.71
2022-12-18T02:14:12.778Z,94.78
2022-12-18T02:15:11.985Z,94.67
2022-12-18T02:16:11.888Z,94.49
2022-12-18T02:17:11.814Z,94.28
2022-12-18T02:18:11.854Z,94.67
2022-12-18T02:19:11.813Z,94.78
2022-12-18T02:20:11.817Z,94.99
2022-12-18T02:21:11.737Z,95.10
2022-12-18T02:22:11.735Z,95.10
2022-12-18T02:23:11.745Z,95.31
2022-12-18T02:24:11.772Z,95.27
2022-12-18T02:25:12.727Z,95.27
2022-12-18T02:26:11.703Z,95.27
2022-12-18T02:27:11.770Z,95.27
2022-12-18T02:28:11.677Z,95.48
2022-12-18T02:29:11.875Z,95.81
2022-12-18T02:30:12.732Z,95.70
2022-12-18T02:31:11.736Z,95.59
2022-12-18T02:32:11.611Z,95.48
2022-12-18T02:33:11.602Z,95.48
2022-12-18T02:34:11.607Z,95.37
2022-12-18T02:35:11.729Z,95.16
2022-12-18T02:36:11.584Z,95.06
2022-12-18T02:37:11.571Z,95.06
2022-12-18T02:38:11.854Z,95.27
2022-12-18T02:39:11.537Z,95.48
2022-12-18T02:40:11.566Z,95.59
2022-12-18T02:41:11.516Z,95.48
2022-12-18T02:42:11.544Z,95.06
2022-12-18T02:43:11.514Z,94.84
2022-12-18T02:44:11.508Z,94.95
2022-12-18T02:45:11.515Z,94.84
2022-12-18T02:46:11.530Z,94.84
2022-12-18T02:47:11.448Z,94.62
2022-12-18T02:48:11.458Z,94.62
2022-12-18T02:49:11.420Z,94.67
2022-12-18T02:50:11.482Z,94.67
2022-12-18T02:51:11.666Z,94.35
2022-12-18T02:52:11.405Z,94.13
2022-12-18T02:53:11.473Z,94.02
2022-12-18T02:54:11.386Z,93.81
2022-12-18T02:55:12.366Z,93.70
2022-12-18T02:56:11.387Z,93.53
2022-12-18T02:57:11.356Z,93.42
2022-12-18T02:58:11.320Z,93.63
2022-12-18T02:59:11.324Z,94.88
2022-12-18T03:00:11.487Z,95.53
2022-12-18T03:01:11.396Z,95.70
2022-12-18T03:02:11.548Z,95.70
2022-12-18T03:03:11.410Z,95.59
2022-12-18T03:04:11.266Z,95.48
2022-12-18T03:05:11.471Z,95.16
2022-12-18T03:06:11.270Z,94.99
2022-12-18T03:07:11.214Z,94.78
2022-12-18T03:08:11.210Z,94.56
2022-12-18T03:09:11.184Z,94.35
2022-12-18T03:10:11.245Z,94.24
2022-12-18T03:11:11.224Z,94.35
2022-12-18T03:12:11.273Z,94.35
2022-12-18T03:13:11.156Z,94.28
2022-12-18T03:14:11.133Z,94.17
2022-12-18T03:15:17.277Z,94.17
2022-12-18T03:16:12.165Z,93.85
2022-12-18T03:17:11.508Z,93.85
2022-12-18T03:18:11.099Z,93.74
2022-12-18T03:19:11.073Z,93.85
2022-12-18T03:20:12.018Z,93.85
2022-12-18T03:21:11.066Z,93.96
2022-12-18T03:22:11.194Z,93.96
2022-12-18T03:23:11.023Z,93.96
2022-12-18T03:24:11.276Z,93.96
2022-12-18T03:25:10.998Z,93.85
2022-12-18T03:26:11.036Z,93.74
2022-12-18T03:27:11.055Z,93.85
2022-12-18T03:28:11.065Z,93.96
2022-12-18T03:29:11.033Z,94.07
2022-12-18T03:30:11.048Z,93.96
2022-12-18T03:31:12.088Z,93.85
2022-12-18T03:32:10.967Z,93.53
2022-12-18T03:33:10.948Z,93.46
2022-12-18T03:34:10.926Z,93.42
2022-12-18T03:35:12.117Z,93.46
2022-12-18T03:36:11.521Z,93.46
2022-12-18T03:37:10.949Z,93.46
2022-12-18T03:38:10.865Z,93.46
2022-12-18T03:39:10.883Z,93.74
2022-12-18T03:40:10.862Z,93.85
2022-12-18T03:41:12.045Z,93.85
2022-12-18T03:42:10.803Z,93.85
2022-12-18T03:43:10.865Z,94.07
2022-12-18T03:44:11.511Z,94.60
2022-12-18T03:45:10.892Z,94.92
2022-12-18T03:46:10.869Z,95.03
2022-12-18T03:47:11.525Z,95.10
2022-12-18T03:48:11.885Z,95.20
2022-12-18T03:49:11.793Z,95.10
2022-12-18T03:50:12.951Z,95.03
2022-12-18T03:51:10.883Z,95.10
2022-12-18T03:52:10.752Z,95.10
2022-12-18T03:53:10.737Z,95.10
2022-12-18T03:54:11.672Z,95.20
2022-12-18T03:55:10.754Z,95.31
2022-12-18T03:56:10.644Z,95.42
2022-12-18T03:57:10.999Z,95.31
2022-12-18T03:58:10.631Z,95.10
2022-12-18T03:59:10.760Z,94.88
2022-12-18T04:00:10.648Z,94.78
2022-12-18T04:01:11.036Z,94.67
2022-12-18T04:02:10.765Z,94.67
2022-12-18T04:03:10.644Z,94.60
2022-12-18T04:04:10.639Z,94.49
2022-12-18T04:05:11.793Z,94.38
2022-12-18T04:06:11.305Z,94.71
2022-12-18T04:07:10.603Z,94.99
2022-12-18T04:08:11.502Z,95.20
2022-12-18T04:09:10.574Z,95.53
2022-12-18T04:10:10.506Z,95.59
2022-12-18T04:11:10.527Z,95.70
2022-12-18T04:12:10.530Z,95.81
2022-12-18T04:13:11.539Z,95.70
2022-12-18T04:14:14.429Z,95.91
2022-12-18T04:15:12.435Z,96.02
2022-12-18T04:16:10.621Z,96.02
2022-12-18T04:17:10.459Z,96.02
2022-12-18T04:18:10.443Z,95.87
2022-12-18T04:19:10.552Z,95.98
2022-12-18T04:20:11.373Z,95.76
2022-12-18T04:21:10.462Z,95.65
2022-12-18T04:22:11.180Z,95.55
2022-12-18T04:23:10.335Z,95.44
2022-12-18T04:24:11.339Z,95.48
2022-12-18T04:25:11.412Z,95.37
2022-12-18T04:26:10.333Z,95.37
2022-12-18T04:27:10.457Z,95.34
2022-12-18T04:28:10.290Z,95.44
2022-12-18T04:29:10.281Z,95.34
2022-12-18T04:30:10.468Z,95.16
2022-12-18T04:31:10.326Z,95.06
2022-12-18T04:32:10.384Z,95.06
2022-12-18T04:33:10.287Z,95.06
2022-12-18T04:34:10.245Z,95.06
2022-12-18T04:35:10.262Z,94.95
2022-12-18T04:36:11.173Z,94.73
2022-12-18T04:37:10.402Z,94.52
2022-12-18T04:38:10.289Z,94.45
2022-12-18T04:39:10.163Z,94.35
2022-12-18T04:40:10.995Z,94.24
2022-12-18T04:41:10.324Z,94.35
2022-12-18T04:42:10.203Z,94.45
2022-12-18T04:43:10.209Z,94.45
2022-12-18T04:44:10.123Z,94.35
2022-12-18T04:45:10.094Z,94.24
2022-12-18T04:46:10.776Z,94.02
2022-12-18T04:47:10.114Z,94.02
2022-12-18T04:48:10.106Z,93.96
2022-12-18T04:49:10.042Z,93.74
2022-12-18T04:50:10.899Z,93.63
2022-12-18T04:51:10.093Z,93.85
2022-12-18T04:52:10.083Z,93.96
2022-12-18T04:53:10.197Z,94.07
2022-12-18T04:54:10.064Z,94.17
2022-12-18T04:55:10.025Z,94.28
2022-12-18T04:56:10.009Z,94.49
2022-12-18T04:57:10.312Z,94.67
2022-12-18T04:58:09.957Z,94.88
2022-12-18T04:59:10.102Z,95.10
2022-12-18T05:00:09.978Z,95.20
2022-12-18T05:01:09.921Z,95.31
2022-12-18T05:02:10.111Z,95.42
2022-12-18T05:03:09.938Z,95.53
2022-12-18T05:04:09.993Z,95.42
2022-12-18T05:05:09.902Z,95.20
2022-12-18T05:06:11.054Z,94.99
2022-12-18T05:07:09.834Z,94.99
2022-12-18T05:08:10.089Z,95.10
2022-12-18T05:09:09.842Z,94.99
2022-12-18T05:10:09.953Z,94.99
2022-12-18T05:11:10.628Z,95.10
2022-12-18T05:12:09.882Z,95.20
2022-12-18T05:13:09.935Z,95.20
2022-12-18T05:14:09.838Z,95.10
2022-12-18T05:15:09.769Z,95.10
2022-12-18T05:16:09.810Z,95.20
2022-12-18T05:17:09.844Z,95.31
2022-12-18T05:18:10.693Z,95.42
2022-12-18T05:19:09.777Z,95.31
2022-12-18T05:20:10.782Z,95.20
2022-12-18T05:21:09.745Z,95.20
2022-12-18T05:22:09.684Z,95.31
2022-12-18T05:23:09.964Z,95.10
2022-12-18T05:24:09.658Z,95.10
2022-12-18T05:25:09.721Z,95.20
2022-12-18T05:26:09.804Z,95.20
2022-12-18T05:27:09.691Z,95.10
2022-12-18T05:28:09.589Z,94.99
2022-12-18T05:29:09.610Z,94.88
2022-12-18T05:30:09.575Z,94.88
2022-12-18T05:31:10.358Z,94.88
2022-12-18T05:32:09.540Z,94.92
2022-12-18T05:33:10.539Z,94.92
2022-12-18T05:34:09.720Z,94.82
2022-12-18T05:35:09.543Z,94.82
2022-12-18T05:36:09.593Z,94.60
2022-12-18T05:37:09.535Z,94.60
2022-12-18T05:38:09.930Z,94.49
2022-12-18T05:39:09.480Z,94.38
2022-12-18T05:40:09.518Z,94.28
2022-12-18T05:41:09.513Z,94.28
2022-12-18T05:42:09.554Z,94.17
2022-12-18T05:43:10.582Z,94.10
2022-12-18T05:44:10.473Z,94.10
2022-12-18T05:45:09.486Z,94.00
2022-12-18T05:46:09.490Z,94.00
2022-12-18T05:47:09.415Z,94.32
2022-12-18T05:48:09.386Z,94.64
2022-12-18T05:49:10.359Z,94.82
2022-12-18T05:50:10.414Z,95.14
2022-12-18T05:51:09.429Z,95.68
2022-12-18T05:52:09.338Z,96.17
2022-12-18T05:53:09.847Z,96.60
2022-12-18T05:54:09.325Z,96.66
2022-12-18T05:55:09.333Z,96.66
2022-12-18T05:56:09.336Z,96.34
2022-12-18T05:57:09.273Z,96.13
2022-12-18T05:58:09.270Z,96.02
2022-12-18T05:59:09.271Z,96.02
2022-12-18T06:00:09.273Z,95.91
2022-12-18T06:01:10.387Z,95.81
2022-12-18T06:02:09.343Z,95.70
2022-12-18T06:03:09.425Z,95.64
2022-12-18T06:04:09.362Z,95.53
2022-12-18T06:05:09.203Z,95.31
2022-12-18T06:06:10.427Z,95.20
2022-12-18T06:07:09.153Z,95.20
2022-12-18T06:08:09.324Z,95.10
2022-12-18T06:09:09.227Z,95.10
2022-12-18T06:10:09.170Z,95.20
2022-12-18T06:11:09.111Z,95.10
2022-12-18T06:12:09.128Z,94.99
2022-12-18T06:13:09.092Z,94.88
2022-12-18T06:14:09.108Z,94.88
2022-12-18T06:15:09.130Z,94.82
2022-12-18T06:16:09.144Z,94.60
2022-12-18T06:17:09.063Z,94.60
2022-12-18T06:18:09.029Z,94.60
2022-12-18T06:19:09.023Z,94.60
2022-12-18T06:20:09.152Z,94.54
2022-12-18T06:21:09.269Z,94.32
2022-12-18T06:22:09.003Z,94.10
2022-12-18T06:23:09.018Z,93.89
2022-12-18T06:24:08.981Z,93.82
2022-12-18T06:25:08.941Z,93.61
2022-12-18T06:26:09.025Z,93.40
2022-12-18T06:27:08.964Z,93.18
2022-12-18T06:28:09.058Z,93.01
2022-12-18T06:29:08.940Z,92.79
2022-12-18T06:30:08.988Z,92.58
2022-12-18T06:31:09.019Z,92.47
2022-12-18T06:32:09.975Z,92.40
2022-12-18T06:33:08.876Z,92.40
2022-12-18T06:34:08.928Z,92.40
2022-12-18T06:35:09.686Z,92.51
2022-12-18T06:36:08.963Z,92.62
2022-12-18T06:37:08.920Z,92.62
2022-12-18T06:38:08.950Z,92.62
2022-12-18T06:39:08.804Z,92.51
2022-12-18T06:40:08.774Z,92.40
2022-12-18T06:41:08.792Z,92.51
2022-12-18T06:42:08.763Z,92.83
2022-12-18T06:43:08.760Z,93.05
2022-12-18T06:44:08.757Z,93.05
2022-12-18T06:45:08.722Z,93.05
2022-12-18T06:46:08.935Z,92.94
2022-12-18T06:47:08.894Z,93.16
2022-12-18T06:48:08.719Z,93.59
2022-12-18T06:49:08.686Z,93.59
2022-12-18T06:50:08.718Z,93.37
2022-12-18T06:51:08.656Z,93.16
2022-12-18T06:52:09.580Z,93.05
2022-12-18T06:53:09.490Z,92.72
2022-12-18T06:54:08.617Z,92.72
2022-12-18T06:55:08.757Z,93.05
2022-12-18T06:56:10.520Z,93.91
2022-12-18T06:57:09.602Z,94.62
2022-12-18T06:58:08.595Z,95.16
2022-12-18T06:59:08.721Z,95.33
2022-12-18T07:00:09.327Z,95.33
2022-12-18T07:01:08.600Z,95.01
2022-12-18T07:02:08.711Z,94.68
2022-12-18T07:03:08.581Z,94.40
2022-12-18T07:04:08.510Z,94.09
2022-12-18T07:05:10.919Z,93.76
2022-12-18T07:06:08.627Z,93.54
2022-12-18T07:07:08.519Z,93.23
2022-12-18T07:08:08.497Z,93.05
2022-12-18T07:09:08.519Z,92.83
2022-12-18T07:10:08.473Z,92.62
2022-12-18T07:11:08.431Z,92.23
2022-12-18T07:12:08.450Z,91.58
2022-12-18T07:13:08.724Z,91.37
2022-12-18T07:14:08.479Z,91.41
2022-12-18T07:15:08.377Z,91.41
2022-12-18T07:16:15.026Z,91.52
2022-12-18T07:17:09.547Z,92.05
2022-12-18T07:18:08.430Z,92.44
2022-12-18T07:19:08.406Z,93.20
2022-12-18T07:20:08.338Z,93.41
2022-12-18T07:21:08.319Z,93.41
2022-12-18T07:22:08.586Z,93.52
2022-12-18T07:23:08.393Z,93.59
2022-12-18T07:24:08.327Z,93.59
2022-12-18T07:25:08.311Z,93.37
2022-12-18T07:26:08.281Z,93.16
2022-12-18T07:27:08.266Z,93.09
2022-12-18T07:28:10.569Z,92.98
2022-12-18T07:29:09.309Z,92.98
2022-12-18T07:30:08.369Z,92.98
2022-12-18T07:31:09.430Z,92.98
2022-12-18T07:32:08.240Z,92.98
2022-12-18T07:33:08.520Z,92.88
2022-12-18T07:34:08.235Z,92.66
2022-12-18T07:35:08.183Z,92.55
2022-12-18T07:36:08.165Z,92.33
2022-12-18T07:37:08.128Z,92.12
2022-12-18T07:38:08.180Z,92.02
2022-12-18T07:39:08.190Z,91.91
2022-12-18T07:40:08.151Z,91.91
2022-12-18T07:41:08.131Z,91.80
2022-12-18T07:42:08.075Z,91.91
2022-12-18T07:43:08.121Z,92.23
2022-12-18T07:44:08.089Z,92.44
2022-12-18T07:45:08.111Z,92.55
2022-12-18T07:46:08.656Z,92.55
2022-12-18T07:47:12.029Z,92.83
2022-12-18T07:48:08.823Z,92.94
2022-12-18T07:49:08.089Z,92.83
2022-12-18T07:50:08.008Z,92.83
2022-12-18T07:51:08.080Z,92.72
2022-12-18T07:52:08.006Z,92.51
2022-12-18T07:53:07.971Z,92.30
2022-12-18T07:54:08.032Z,92.19
2022-12-18T07:55:07.974Z,92.19
2022-12-18T07:57:16.531Z,92.19
2022-12-18T07:58:08.920Z,92.51
2022-12-18T07:59:07.889Z,92.72
2022-12-18T08:00:08.348Z,92.83
2022-12-18T08:01:08.005Z,92.69
2022-12-18T08:02:08.048Z,92.79
2022-12-18T08:03:07.926Z,92.90
2022-12-18T08:04:07.848Z,93.12
2022-12-18T08:05:07.841Z,93.23
2022-12-18T08:06:07.901Z,93.51
2022-12-18T08:07:07.853Z,93.72
2022-12-18T08:08:08.946Z,93.61
2022-12-18T08:09:07.817Z,93.61
2022-12-18T08:10:07.761Z,93.51
2022-12-18T08:11:07.784Z,93.46
2022-12-18T08:12:07.747Z,93.68
2022-12-18T08:13:07.768Z,93.57
2022-12-18T08:14:07.751Z,93.46
2022-12-18T08:15:07.749Z,93.57
2022-12-18T08:16:07.970Z,93.63
2022-12-18T08:17:07.707Z,93.85
2022-12-18T08:18:12.664Z,93.96
2022-12-18T08:19:08.696Z,94.13
2022-12-18T08:20:07.642Z,94.24
2022-12-18T08:21:07.667Z,94.35
2022-12-18T08:22:07.662Z,94.35
2022-12-18T08:23:07.667Z,94.41
2022-12-18T08:24:07.646Z,94.41
2022-12-18T08:25:07.627Z,94.52
2022-12-18T08:26:08.751Z,94.73
2022-12-18T08:28:08.578Z,95.07
2022-12-18T08:29:07.557Z,95.29
2022-12-18T08:30:07.568Z,95.25
2022-12-18T08:31:07.635Z,95.25
2022-12-18T08:32:07.631Z,95.04
2022-12-18T08:33:08.587Z,94.93
2022-12-18T08:34:07.537Z,94.78
2022-12-18T08:35:07.637Z,94.56
2022-12-18T08:36:07.492Z,94.67
2022-12-18T08:37:07.466Z,94.67
2022-12-18T08:38:07.457Z,94.52
2022-12-18T08:39:07.427Z,94.42
2022-12-18T08:40:07.439Z,94.42
2022-12-18T08:41:07.406Z,94.31
2022-12-18T08:42:10.251Z,94.20
2022-12-18T08:43:07.403Z,94.27
2022-12-18T08:44:07.407Z,94.48
2022-12-18T08:45:07.381Z,94.59
2022-12-18T08:46:07.425Z,94.37
2022-12-18T08:47:07.603Z,94.12
2022-12-18T08:48:07.361Z,93.90
2022-12-18T08:49:07.319Z,94.01
2022-12-18T08:50:07.385Z,94.12
2022-12-18T08:51:07.304Z,94.01
2022-12-18T08:52:07.295Z,94.01
2022-12-18T08:53:07.295Z,94.07
2022-12-18T08:54:07.259Z,94.29
2022-12-18T08:55:07.246Z,94.18
2022-12-18T08:56:07.256Z,94.18
2022-12-18T08:57:07.239Z,94.07
2022-12-18T08:58:07.247Z,94.14
2022-12-18T08:59:07.199Z,94.35
2022-12-18T09:00:07.228Z,94.24
2022-12-18T09:01:07.206Z,94.31
2022-12-18T09:02:07.529Z,94.21
2022-12-18T09:03:07.301Z,94.10
2022-12-18T09:04:07.621Z,94.10
2022-12-18T09:05:07.179Z,94.21
2022-12-18T09:06:07.117Z,94.10
2022-12-18T09:07:07.706Z,93.99
2022-12-18T09:08:07.153Z,93.95
2022-12-18T09:09:07.116Z,93.84
2022-12-18T09:10:07.108Z,93.74
2022-12-18T09:11:07.085Z,93.74
2022-12-18T09:12:07.086Z,94.06
2022-12-18T09:13:07.043Z,94.55
2022-12-18T09:14:07.078Z,94.76
2022-12-18T09:15:07.050Z,94.87
2022-12-18T09:16:07.013Z,94.93
2022-12-18T09:17:07.049Z,94.61
2022-12-18T09:18:06.977Z,94.29
2022-12-18T09:19:07.014Z,94.18
2022-12-18T09:20:07.014Z,94.29
2022-12-18T09:21:06.981Z,94.29
2022-12-18T09:22:06.954Z,94.25
2022-12-18T09:23:07.107Z,94.46
2022-12-18T09:24:08.941Z,94.35
2022-12-18T09:25:07.217Z,94.04
2022-12-18T09:26:07.035Z,94.25
2022-12-18T09:27:06.907Z,94.35
2022-12-18T09:28:06.907Z,94.04
2022-12-18T09:29:06.878Z,93.72
2022-12-18T09:30:06.882Z,93.51
2022-12-18T09:31:06.890Z,93.61
2022-12-18T09:32:06.872Z,93.51
2022-12-18T09:33:06.829Z,93.82
2022-12-18T09:34:06.823Z,94.10
2022-12-18T09:35:06.838Z,94.10
2022-12-18T09:36:06.783Z,93.99
2022-12-18T09:37:06.793Z,93.89
2022-12-18T09:38:06.820Z,93.78
2022-12-18T09:39:08.797Z,93.99
2022-12-18T09:40:06.749Z,93.99
2022-12-18T09:41:06.764Z,94.48
2022-12-18T09:42:06.744Z,94.48
2022-12-18T09:43:08.266Z,94.38
2022-12-18T09:44:06.695Z,94.34
2022-12-18T09:45:07.875Z,94.12
2022-12-18T09:46:06.894Z,94.12
2022-12-18T09:47:06.715Z,94.55
2022-12-18T09:48:06.755Z,94.55
2022-12-18T09:49:06.636Z,94.40
2022-12-18T09:50:06.613Z,94.19
2022-12-18T09:51:06.628Z,94.19
2022-12-18T09:52:06.642Z,94.19
2022-12-18T09:53:06.595Z,94.08
2022-12-18T09:54:06.615Z,94.46
2022-12-18T09:55:06.544Z,94.68
2022-12-18T09:56:06.595Z,94.53
2022-12-18T09:57:06.564Z,94.32
2022-12-18T09:58:06.536Z,94.10
2022-12-18T09:59:06.519Z,93.89
2022-12-18T10:00:06.548Z,93.68
2022-12-18T10:01:06.573Z,93.99
2022-12-18T10:02:06.565Z,94.27
2022-12-18T10:03:06.623Z,94.06
2022-12-18T10:04:06.520Z,93.96
2022-12-18T10:05:06.485Z,94.06
2022-12-18T10:06:06.447Z,94.23
2022-12-18T10:07:09.319Z,94.45
2022-12-18T10:08:06.507Z,94.34
2022-12-18T10:09:06.451Z,94.29
2022-12-18T10:10:06.463Z,94.09
2022-12-18T10:11:06.400Z,93.76
2022-12-18T10:12:06.400Z,93.87
2022-12-18T10:13:06.323Z,93.98
2022-12-18T10:14:06.322Z,93.76
2022-12-18T10:15:06.326Z,93.76
2022-12-18T10:16:06.384Z,93.72
2022-12-18T10:17:06.297Z,93.34
2022-12-18T10:18:06.338Z,93.51
2022-12-18T10:19:06.282Z,93.83
2022-12-18T10:20:06.293Z,93.93
2022-12-18T10:21:06.310Z,94.04
2022-12-18T10:22:06.262Z,93.72
2022-12-18T10:23:06.404Z,93.51
2022-12-18T10:24:06.243Z,93.51
2022-12-18T10:25:06.227Z,93.83
2022-12-18T10:26:06.249Z,93.93
2022-12-18T10:27:06.245Z,93.72
2022-12-18T10:28:06.197Z,93.62
2022-12-18T10:29:06.186Z,93.30
2022-12-18T10:30:06.241Z,93.08
2022-12-18T10:31:06.140Z,93.30
2022-12-18T10:32:06.167Z,93.51
2022-12-18T10:33:06.098Z,93.62
2022-12-18T10:34:06.106Z,93.51
2022-12-18T10:35:06.117Z,93.83
2022-12-18T10:36:06.099Z,93.93
2022-12-18T10:37:06.067Z,94.21
2022-12-18T10:38:06.075Z,94.42
2022-12-18T10:39:06.075Z,94.32
2022-12-18T10:40:06.086Z,94.21
2022-12-18T10:41:06.021Z,93.74
2022-12-18T10:42:05.993Z,93.43
2022-12-18T10:43:06.024Z,93.74
2022-12-18T10:44:05.994Z,93.96
2022-12-18T10:45:05.977Z,94.06
2022-12-18T10:46:05.976Z,93.74
2022-12-18T10:47:11.659Z,93.53
2022-12-18T10:48:07.046Z,93.32
2022-12-18T10:49:05.924Z,93.43
2022-12-18T10:50:05.938Z,93.43
2022-12-18T10:51:13.717Z,93.43
2022-12-18T10:52:06.879Z,93.74
2022-12-18T10:53:06.005Z,93.70
2022-12-18T10:54:06.436Z,93.80
2022-12-18T10:55:05.894Z,93.70
2022-12-18T10:56:05.909Z,93.91
2022-12-18T10:57:05.845Z,93.70
2022-12-18T10:58:05.826Z,93.55
2022-12-18T10:59:05.964Z,93.98
2022-12-18T11:00:05.838Z,93.77
2022-12-18T11:01:05.824Z,93.55
2022-12-18T11:02:05.868Z,93.34
2022-12-18T11:03:05.967Z,93.41
2022-12-18T11:04:05.800Z,93.51
2022-12-18T11:05:05.741Z,93.62
2022-12-18T11:06:05.762Z,93.19
2022-12-18T11:07:05.734Z,92.77
2022-12-18T11:08:05.728Z,92.66
2022-12-18T11:09:13.216Z,92.66
2022-12-18T11:10:08.008Z,92.35
2022-12-18T11:11:05.668Z,92.56
2022-12-18T11:12:05.678Z,92.77
2022-12-18T11:13:05.629Z,92.98
2022-12-18T11:14:05.634Z,93.09
2022-12-18T11:15:05.595Z,93.30
2022-12-18T11:16:05.748Z,93.62
2022-12-18T11:18:06.596Z,94.00
2022-12-18T11:19:05.577Z,93.89
2022-12-18T11:20:05.603Z,94.00
2022-12-18T11:21:05.657Z,94.32
2022-12-18T11:22:05.557Z,94.21
2022-12-18T11:23:05.576Z,94.10
2022-12-18T11:24:05.508Z,93.96
2022-12-18T11:26:06.547Z,94.06
2022-12-18T11:27:05.488Z,94.23
2022-12-18T11:28:05.528Z,93.85
2022-12-18T11:29:05.455Z,93.91
2022-12-18T11:30:05.425Z,93.70
2022-12-18T11:31:05.474Z,93.60
2022-12-18T11:32:05.446Z,93.43
2022-12-18T11:33:05.387Z,93.64
2022-12-18T11:34:27.913Z,93.53
2022-12-18T11:35:06.405Z,93.32
2022-12-18T11:36:05.368Z,92.90
2022-12-18T11:37:05.375Z,93.21
2022-12-18T11:38:05.327Z,93.32
2022-12-18T11:39:05.325Z,93.43
2022-12-18T11:40:05.348Z,93.43
2022-12-18T11:41:05.330Z,94.02
2022-12-18T11:42:05.308Z,94.34
2022-12-18T11:43:05.287Z,94.45
2022-12-18T11:44:05.255Z,94.55
2022-12-18T11:45:05.530Z,94.34
2022-12-18T11:46:05.271Z,94.23
2022-12-18T11:47:05.272Z,94.29
2022-12-18T11:48:05.266Z,94.40
2022-12-18T11:49:05.253Z,94.29
2022-12-18T11:50:05.189Z,94.19
2022-12-18T11:51:05.163Z,93.83
2022-12-18T11:52:05.185Z,93.41
2022-12-18T11:53:06.463Z,93.19
2022-12-18T11:54:05.177Z,93.09
2022-12-18T11:55:05.118Z,92.67
2022-12-18T11:56:05.127Z,92.77
2022-12-18T11:57:05.111Z,93.19
2022-12-18T11:58:06.025Z,93.19
2022-12-18T11:59:05.069Z,92.99
2022-12-18T12:00:05.098Z,92.24
2022-12-18T12:01:05.068Z,91.82
2022-12-18T12:02:05.243Z,92.03
2022-12-18T12:03:05.228Z,92.56
2022-12-18T12:04:05.076Z,92.67
2022-12-18T12:05:05.986Z,92.24
2022-12-18T12:06:05.006Z,92.56
2022-12-18T12:07:05.074Z,92.77
2022-12-18T12:08:04.981Z,93.30
2022-12-18T12:09:05.066Z,93.51
2022-12-18T12:10:04.944Z,93.37
2022-12-18T12:11:04.966Z,93.47
2022-12-18T12:12:04.910Z,93.05
2022-12-18T12:13:04.937Z,92.83
2022-12-18T12:14:04.957Z,92.73
2022-12-18T12:15:04.943Z,92.56
2022-12-18T12:16:04.925Z,92.46
2022-12-18T12:17:05.027Z,92.67
2022-12-18T12:18:10.941Z,92.88
2022-12-18T12:19:05.869Z,93.09
2022-12-18T12:20:04.841Z,93.37
2022-12-18T12:21:04.814Z,93.47
2022-12-18T12:22:04.817Z,93.15
2022-12-18T12:23:04.809Z,93.01
2022-12-18T12:24:04.852Z,93.01
2022-12-18T12:25:04.811Z,92.48
2022-12-18T12:26:04.798Z,92.05
2022-12-18T12:27:05.506Z,92.48
2022-12-18T12:28:05.175Z,92.79
2022-12-18T12:29:04.750Z,92.65
2022-12-18T12:30:04.715Z,92.76
2022-12-18T12:31:05.748Z,92.86
2022-12-18T12:32:04.785Z,92.65
2022-12-18T12:33:04.708Z,92.65
2022-12-18T12:34:04.664Z,92.50
2022-12-18T12:35:09.594Z,92.50
2022-12-18T12:36:05.752Z,92.08
2022-12-18T12:37:04.647Z,92.18
2022-12-18T12:38:04.775Z,92.35
2022-12-18T12:39:04.605Z,92.14
2022-12-18T12:40:20.560Z,92.25
2022-12-18T12:41:06.184Z,92.14
2022-12-18T12:42:04.578Z,92.14
2022-12-18T12:43:04.632Z,92.14
2022-12-18T12:44:04.634Z,91.93
2022-12-18T12:45:04.698Z,92.03
2022-12-18T12:46:04.574Z,92.14
2022-12-18T12:47:04.518Z,92.14
2022-12-18T12:48:04.475Z,92.25
2022-12-18T12:49:04.547Z,92.35
2022-12-18T12:50:04.552Z,92.67
2022-12-18T12:51:04.788Z,92.46
2022-12-18T12:52:04.458Z,92.25
2022-12-18T12:53:04.417Z,92.35
2022-12-18T12:54:04.447Z,92.35
2022-12-18T12:55:04.393Z,92.46
2022-12-18T12:56:04.424Z,92.57
2022-12-18T12:57:04.406Z,92.57